ADDS METAR Data INFO
IDs: Format: Raw Decoded Include TAF

Data at: 0403 UTC 11 Dec 2017

KMBL 110356Z AUTO 35008KT 10SM OVC034 M04/M09 A3002 RMK AO2 SNE18B35E45 SLP189 T10441094 FZRANO PNO $
KMBL 110256Z AUTO 36009G15KT 9SM -SN OVC030 M04/M09 A3002 RMK AO2 SLP186 6//// T10391089 51020 FZRANO PNO $
KMBL 110204Z AUTO 34011G16KT 9SM -SN OVC030 M03/M08 A3001 RMK AO2 FZRANO PNO $
KMBL 110156Z AUTO 34007KT 9SM -SN BKN027 OVC033 M03/M08 A3001 RMK AO2 SLP182 T10331078 FZRANO PNO $
KMBL 110056Z AUTO 36005KT 9SM -SN BKN028 OVC033 M03/M07 A2998 RMK AO2 SLP175 T10281072 FZRANO PNO $
KMBL 110049Z AUTO 01007KT 9SM -SN OVC028 M03/M07 A2998 RMK AO2 FZRANO PNO $
KMBL 102356Z AUTO 03005KT 9SM -SN FEW023 OVC030 M03/M06 A2995 RMK AO2 SLP165 6//// T10281056 11017 21033 53028 FZRANO PNO $
KMBL 102319Z AUTO 02007KT 3SM -SN BR FEW011 BKN025 OVC032 M03/M05 A2994 RMK AO2 FZRANO PNO $
KMBL 102306Z AUTO 36011G17KT 1 3/4SM -SN SCT009 BKN028 OVC036 M02/M06 A2993 RMK AO2 PRESRR FZRANO PNO $
KMBL 102302Z AUTO 01012G17KT 3SM -SN FEW009 BKN028 OVC034 M02/M06 A2993 RMK AO2 FZRANO PNO $
KMBL 102256Z AUTO 34009G14KT 9SM -SN BKN032 OVC041 M02/M07 A2991 RMK AO2 UPB32E36SNE32B36 SLP154 T10171067 FZRANO PNO $
KMBL 102240Z AUTO 34008G16KT 9SM -SN BKN030 OVC036 M02/M07 A2991 RMK AO2 UPB32E36SNE32B36 FZRANO PNO $
KMBL 102156Z AUTO 32007KT 9SM -SN BKN025 OVC031 M02/M06 A2988 RMK AO2 UPB14E39SNE14B39 SLP140 T10171061 FZRANO PNO $
KMBL 102056Z AUTO 00000KT 9SM -SN OVC020 M03/M07 A2987 RMK AO2 SNB23 SLP137 6//// T10331072 53013 FZRANO PNO $
KMBL 101956Z AUTO 32007KT 10SM OVC022 M03/M07 A2986 RMK AO2 SNE19 SLP132 T10281072 FZRANO PNO $
KMBL 101856Z AUTO 29012KT 10SM -SN OVC019 M03/M07 A2984 RMK AO2 SNE1758B52 SLP126 T10331067 FZRANO PNO $
KMBL 101756Z AUTO 28007KT 9SM -SN OVC019 M03/M07 A2983 RMK AO2 SNB10 SLP122 6//// T10281067 11028 21039 55003 FZRANO PNO $
KMBL 101656Z AUTO 27011KT 10SM OVC017 M03/M07 A2983 RMK AO2 SNE23 SLP122 T10331067 FZRANO PNO $
KMBL 101556Z AUTO 27009KT 9SM -SN OVC017 M03/M06 A2984 RMK AO2 SLP125 T10331061 FZRANO PNO $
KMBL 101456Z AUTO 26009KT 9SM -SN OVC019 M03/M07 A2984 RMK AO2 SNB03 SLP126 6//// T10281067 55002 FZRANO PNO $
KMBL 101356Z AUTO 25008KT 10SM OVC021 M03/M07 A2984 RMK AO2 SNB25E35 SLP124 T10331067 FZRANO PNO $
KMBL 101256Z AUTO 26007KT 10SM OVC019 M04/M07 A2984 RMK AO2 SLP127 T10391072 FZRANO PNO $
KMBL 101156Z AUTO 25008KT 10SM OVC019 M04/M07 A2984 RMK AO2 SNE32 SLP128 6//// 7//// T10391072 11039 21056 55006 FZRANO PNO $
KMBL 101056Z AUTO 25010G15KT 9SM -SN BKN021 BKN026 BKN036 M04/M08 A2984 RMK AO2 SNB0957 SLP127 T10441083 FZRANO PNO $
KMBL 101029Z AUTO 26009KT 7SM -SN FEW020 BKN025 OVC032 M04/M09 A2986 RMK AO2 SNB0957 FZRANO PNO $
KMBL 100956Z AUTO 25009KT 10SM FEW022 SCT043 M05/M09 A2986 RMK AO2 SLP133 T10501094 FZRANO PNO $
KMBL 100952Z AUTO 24006KT 10SM SCT022 SCT060 M05/M09 A2986 RMK AO2 FZRANO PNO $
KMBL 100856Z AUTO 24008KT 10SM BKN022 BKN026 M06/M09 A2987 RMK AO2 SLP138 6//// T10561089 58013 FZRANO PNO $
KMBL 100756Z AUTO 25009KT 10SM OVC024 M05/M09 A2989 RMK AO2 SLP146 T10501094 FZRANO PNO $
KMBL 100656Z AUTO 25009KT 10SM OVC024 M05/M09 A2990 RMK AO2 SLP149 T10501089 FZRANO PNO $
KMBL 100556Z AUTO 26009KT 10SM OVC026 M04/M09 A2991 RMK AO2 SLP154 6//// T10441089 11028 21050 58009 FZRANO PNO $
KMBL 100456Z AUTO 27009KT 10SM OVC028 M05/M09 A2993 RMK AO2 SNE47 SLP157 T10501094 400001050 FZRANO PNO $
KMBL 100356Z AUTO 29011KT 9SM -SN BKN027 OVC032 M04/M09 A2994 RMK AO2 SLP163 T10441089 FZRANO PNO $
KMBL 100320Z AUTO 29011KT 9SM -SN OVC028 M04/M08 A2994 RMK AO2 FZRANO PNO $
KMBL 100256Z AUTO 29013KT 9SM -SN OVC030 M04/M09 A2994 RMK AO2 SNB01 SLP160 6//// T10391089 50005 FZRANO PNO $
KMBL 100156Z AUTO 29009KT 10SM OVC034 M03/M09 A2994 RMK AO2 SNB22E45 SLP160 T10331089 FZRANO PNO $
KMBL 100143Z AUTO 31008KT 9SM -SN OVC032 M03/M08 A2994 RMK AO2 SNB22 FZRANO PNO $
KMBL 100136Z AUTO 31007KT 9SM -SN BKN029 OVC037 M03/M08 A2994 RMK AO2 SNB22 FZRANO PNO $
KMBL 100056Z AUTO 31008KT 10SM BKN033 OVC043 M03/M09 A2994 RMK AO2 SNE33 SLP159 T10331089 FZRANO PNO $
KMBL 100046Z AUTO 32010G17KT 10SM OVC031 M03/M08 A2994 RMK AO2 SNE33 FZRANO PNO $
KMBL 092356Z AUTO VRB06KT 9SM -SN FEW016 OVC025 M03/M06 A2993 RMK AO2 SLP155 6//// T10331056 10000 21033 51025 FZRANO TSNO PNO $
KMBL 092334Z AUTO VRB06KT 5SM -SN BR BKN019 OVC024 M03/M06 A2993 RMK AO2 FZRANO PNO $
KMBL 092326Z AUTO 35005KT 2 1/2SM -SN BR BKN019 OVC024 M03/M06 A2993 RMK AO2 VIS 1 1/2V5 FZRANO PNO $
KMBL 092308Z AUTO 02007KT 3SM -SN BR FEW009 SCT015 OVC021 M03/M06 A2992 RMK AO2 FZRANO PNO $
KMBL 092256Z AUTO 02009KT 2SM -SN BR FEW009 OVC018 M03/M06 A2992 RMK AO2 VIS 1 1/2V4 SLP152 T10331056 FZRANO PNO $
KMBL 092237Z AUTO 36006KT 2 1/2SM -SN BKN017 OVC034 M03/M06 A2991 RMK AO2 VIS 2V4 FZRANO PNO $
KMBL 092156Z AUTO 02006G14KT 9SM -SN OVC043 M02/M06 A2989 RMK AO2 SLP144 T10221061 FZRANO PNO $
KMBL 092108Z AUTO 02008KT 9SM -SN FEW016 OVC030 M02/M05 A2986 RMK AO2 FZRANO PNO $
KMBL 092056Z AUTO 01009KT 7SM -SN SCT018 SCT023 OVC028 M02/M05 A2985 RMK AO2 SLP132 6//// T10221050 53021 FZRANO PNO $
KMBL 092037Z AUTO 01006G16KT 4SM -SN SCT019 BKN025 BKN050 M02/M05 A2984 RMK AO2 FZRANO PNO $
KMBL 091956Z AUTO 34009KT 5SM -SN BKN030 M01/M06 A2983 RMK AO2 UPB42E50SNB50 SLP124 T10061056 FZRANO PNO $
KMBL 091948Z AUTO 34008KT 10SM UP BKN027 BKN034 M01/M06 A2982 RMK AO2 UPB42 FZRANO PNO $
KMBL 091939Z AUTO 01010KT 10SM SCT026 BKN035 M01/M06 A2982 RMK AO2 FZRANO PNO $
KMBL 091906Z AUTO 03009G15KT 10SM FEW020 BKN029 M01/M06 A2981 RMK AO2 FZRANO PNO $
KMBL 091856Z AUTO VRB06KT 10SM SCT020 00/M05 A2980 RMK AO2 SLP115 T00001050 FZRANO PNO $
KMBL 091756Z AUTO 04008KT 10SM BKN044 M01/M05 A2979 RMK AO2 SNE32 SLP111 6//// T10111050 11006 21039 51020 FZRANO TSNO PNO $
KMBL 091705Z AUTO 03007KT 9SM -SN SCT012 M02/M05 A2978 RMK AO2 FZRANO PNO $
KMBL 091656Z AUTO 04005KT 7SM -SN BKN012 M02/M05 A2977 RMK AO2 SLP105 T10171050 FZRANO PNO $
KMBL 091630Z AUTO VRB04KT 5SM -SN BKN012 BKN036 M01/M04 A2977 RMK AO2 FZRANO PNO $